createdAt,value
2022-08-16T00:01:04.308Z,11.70
2022-08-16T00:03:37.564Z,10.88
2022-08-16T00:06:08.047Z,11.63
2022-08-16T00:08:40.165Z,11.57
2022-08-16T00:11:16.896Z,11.18
2022-08-16T00:13:53.309Z,11.75
2022-08-16T00:17:05.374Z,12.02
2022-08-16T00:19:19.788Z,12.07
2022-08-16T00:21:56.042Z,11.48
2022-08-16T00:24:32.984Z,11.05
2022-08-16T00:27:05.523Z,9.65
2022-08-16T00:29:39.762Z,10.45
2022-08-16T00:32:13.153Z,11.15
2022-08-16T00:34:53.015Z,11.13
2022-08-16T00:37:57.311Z,11.15
2022-08-16T00:40:35.019Z,11.38
2022-08-16T00:43:11.954Z,12.27
2022-08-16T00:45:57.800Z,11.75
2022-08-16T00:48:40.371Z,11.45
2022-08-16T00:51:16.015Z,12.05
2022-08-16T00:53:48.037Z,12.95
2022-08-16T00:56:58.663Z,11.55
2022-08-16T00:59:15.400Z,12.63
2022-08-16T01:01:47.348Z,12.10
2022-08-16T01:04:29.428Z,11.75
2022-08-16T01:07:04.835Z,13.00
2022-08-16T01:09:42.989Z,12.85
2022-08-16T01:12:26.545Z,11.70
2022-08-16T01:15:00.521Z,12.65
2022-08-16T01:17:36.676Z,12.45
2022-08-16T01:20:23.703Z,11.38
2022-08-16T01:23:08.770Z,11.70
2022-08-16T01:25:44.699Z,11.52
2022-08-16T01:28:33.009Z,12.00
2022-08-16T01:31:05.432Z,10.77
2022-08-16T01:33:35.935Z,12.73
2022-08-16T01:36:12.044Z,11.68
2022-08-16T01:38:49.020Z,11.88
2022-08-16T01:41:26.137Z,11.43
2022-08-16T01:44:00.874Z,12.82
2022-08-16T01:46:39.845Z,11.23
2022-08-16T01:49:14.910Z,11.50
2022-08-16T01:51:47.335Z,12.63
2022-08-16T01:54:17.359Z,12.88
2022-08-16T01:59:33.894Z,11.80
2022-08-16T02:02:05.028Z,12.10
2022-08-16T02:04:55.034Z,12.50
2022-08-16T02:07:25.491Z,12.15
2022-08-16T02:09:59.053Z,11.35
2022-08-16T02:12:50.455Z,12.70
2022-08-16T02:15:25.990Z,11.98
2022-08-16T02:17:57.793Z,12.48
2022-08-16T02:20:29.100Z,12.45
2022-08-16T02:23:01.693Z,12.68
2022-08-16T02:25:50.587Z,12.70
2022-08-16T02:28:24.773Z,11.88
2022-08-16T02:30:58.015Z,12.55
2022-08-16T02:33:44.647Z,12.60
2022-08-16T02:36:47.432Z,12.93
2022-08-16T02:39:11.659Z,13.93
2022-08-16T02:41:53.298Z,12.73
2022-08-16T02:44:27.085Z,12.55
2022-08-16T02:46:58.591Z,13.25
2022-08-16T02:49:57.931Z,13.25
2022-08-16T02:52:29.079Z,12.50
2022-08-16T02:55:00.110Z,12.77
2022-08-16T02:57:31.164Z,12.45
2022-08-16T03:00:33.989Z,13.60
2022-08-16T03:02:57.581Z,13.93
2022-08-16T03:05:30.866Z,12.60
2022-08-16T03:08:01.492Z,13.20
2022-08-16T03:10:33.332Z,11.98
2022-08-16T03:13:12.436Z,12.23
2022-08-16T03:15:44.711Z,12.70
2022-08-16T03:18:34.775Z,12.57
2022-08-16T03:21:10.148Z,12.73
2022-08-16T03:23:43.619Z,13.13
2022-08-16T03:26:14.999Z,12.65
2022-08-16T03:28:48.257Z,12.75
2022-08-16T03:31:20.278Z,13.25
2022-08-16T03:33:52.140Z,12.60
2022-08-16T03:36:30.809Z,12.43
2022-08-16T03:39:03.425Z,12.65
2022-08-16T03:41:49.627Z,13.48
2022-08-16T03:44:43.348Z,14.20
2022-08-16T03:47:12.699Z,13.98
2022-08-16T03:49:51.901Z,14.52
2022-08-16T03:52:23.966Z,13.10
2022-08-16T03:55:01.712Z,13.60
2022-08-16T03:57:35.749Z,13.55
2022-08-16T04:00:20.703Z,12.95
2022-08-16T04:03:08.841Z,14.15
2022-08-16T04:05:44.246Z,14.52
2022-08-16T04:08:24.199Z,13.82
2022-08-16T04:10:57.930Z,14.52
2022-08-16T04:13:59.062Z,13.57
2022-08-16T04:16:27.521Z,12.98
2022-08-16T04:19:02.233Z,14.27
2022-08-16T04:21:34.463Z,25.15
2022-08-16T04:24:07.920Z,15.88
2022-08-16T04:26:38.311Z,14.88
2022-08-16T04:29:24.412Z,15.40
2022-08-16T04:31:56.913Z,14.90
2022-08-16T04:34:32.613Z,15.43
2022-08-16T04:37:03.355Z,15.40
2022-08-16T04:39:47.093Z,15.82
2022-08-16T04:42:26.507Z,18.40
2022-08-16T04:45:01.967Z,16.02
2022-08-16T04:47:35.859Z,15.27
2022-08-16T04:50:11.363Z,16.23
2022-08-16T04:52:46.566Z,16.27
2022-08-16T04:55:18.974Z,13.98
2022-08-16T04:57:53.665Z,14.27
2022-08-16T05:00:32.696Z,15.57
2022-08-16T05:03:07.633Z,15.40
2022-08-16T05:05:44.807Z,16.77
2022-08-16T05:08:29.844Z,15.50
2022-08-16T05:11:03.705Z,18.88
2022-08-16T05:13:41.750Z,16.40
2022-08-16T05:16:19.791Z,14.45
2022-08-16T05:18:52.430Z,15.05
2022-08-16T05:21:24.377Z,14.77
2022-08-16T05:24:00.318Z,14.40
2022-08-16T05:26:33.287Z,15.55
2022-08-16T05:29:04.562Z,15.40
2022-08-16T05:31:35.257Z,14.85
2022-08-16T05:34:05.802Z,15.50
2022-08-16T05:36:53.113Z,15.60
2022-08-16T05:39:23.229Z,13.85
2022-08-16T05:41:55.654Z,15.68
2022-08-16T05:44:25.868Z,14.75
2022-08-16T05:46:57.738Z,14.23
2022-08-16T05:49:39.770Z,14.48
2022-08-16T05:52:13.620Z,14.32
2022-08-16T05:55:01.018Z,14.13
2022-08-16T05:57:34.483Z,16.17
2022-08-16T06:00:09.789Z,13.63
2022-08-16T06:02:40.254Z,13.65
2022-08-16T06:05:11.166Z,14.23
2022-08-16T06:07:58.503Z,13.40
2022-08-16T06:10:31.860Z,13.93
2022-08-16T06:13:03.139Z,12.45
2022-08-16T06:15:33.637Z,13.80
2022-08-16T06:18:06.062Z,14.73
2022-08-16T06:20:36.853Z,15.13
2022-08-16T06:23:23.974Z,15.10
2022-08-16T06:25:54.299Z,17.00
2022-08-16T06:28:36.263Z,14.93
2022-08-16T06:31:12.090Z,15.65
2022-08-16T06:33:44.764Z,14.88
2022-08-16T06:36:16.597Z,15.10
2022-08-16T06:38:55.617Z,15.52
2022-08-16T06:41:27.646Z,14.93
2022-08-16T06:43:58.050Z,14.55
2022-08-16T06:46:34.123Z,14.93
2022-08-16T06:49:06.253Z,16.15
2022-08-16T06:51:48.000Z,16.17
2022-08-16T06:54:20.251Z,16.08
2022-08-16T06:56:53.949Z,15.57
2022-08-16T06:59:25.586Z,15.45
2022-08-16T07:01:58.400Z,15.73
2022-08-16T07:04:33.217Z,15.73
2022-08-16T07:07:09.802Z,15.98
2022-08-16T07:09:41.240Z,16.92
2022-08-16T07:12:12.637Z,15.40
2022-08-16T07:14:48.624Z,15.85
2022-08-16T07:17:21.695Z,15.70
2022-08-16T07:20:30.158Z,15.65
2022-08-16T07:22:43.288Z,15.27
2022-08-16T07:25:24.930Z,16.02
2022-08-16T07:27:55.429Z,16.98
2022-08-16T07:30:45.538Z,15.48
2022-08-16T07:33:48.122Z,15.75
2022-08-16T07:36:08.505Z,14.18
2022-08-16T07:38:39.932Z,13.73
2022-08-16T07:41:11.932Z,16.75
2022-08-16T07:43:42.124Z,13.75
2022-08-16T07:46:37.511Z,14.25
2022-08-16T07:49:04.598Z,14.40
2022-08-16T07:51:42.620Z,13.15
2022-08-16T07:54:20.748Z,14.55
2022-08-16T07:56:53.169Z,12.38
2022-08-16T07:59:26.116Z,14.20
2022-08-16T08:02:19.868Z,15.10
2022-08-16T08:04:51.029Z,14.35
2022-08-16T08:07:20.944Z,13.43
2022-08-16T08:09:50.840Z,11.65
2022-08-16T08:12:31.941Z,12.40
2022-08-16T08:15:09.608Z,12.55
2022-08-16T08:20:23.902Z,12.95
2022-08-16T08:25:53.664Z,14.45
2022-08-16T08:28:23.313Z,13.93
2022-08-16T08:31:01.089Z,13.25
2022-08-16T08:33:33.989Z,12.52
2022-08-16T08:36:07.472Z,12.30
2022-08-16T08:38:45.321Z,10.80
2022-08-16T08:41:18.627Z,11.52
2022-08-16T08:43:51.285Z,11.15
2022-08-16T08:46:22.550Z,13.05
2022-08-16T08:48:59.512Z,11.88
2022-08-16T08:51:35.922Z,12.02
2022-08-16T08:54:09.479Z,11.73
2022-08-16T08:56:45.417Z,12.23
2022-08-16T08:59:20.165Z,10.85
2022-08-16T09:01:57.532Z,11.60
2022-08-16T09:04:29.011Z,11.30
2022-08-16T09:07:01.303Z,11.68
2022-08-16T09:09:33.335Z,12.52
2022-08-16T09:12:06.765Z,12.05
2022-08-16T09:14:50.939Z,11.60
2022-08-16T09:17:45.598Z,13.05
2022-08-16T09:20:14.475Z,12.05
2022-08-16T09:22:52.371Z,13.18
2022-08-16T09:25:26.328Z,12.88
2022-08-16T09:28:08.959Z,12.63
2022-08-16T09:30:44.276Z,12.90
2022-08-16T09:33:19.987Z,12.93
2022-08-16T09:35:53.060Z,12.13
2022-08-16T09:38:32.456Z,12.20
2022-08-16T09:41:14.403Z,12.43
2022-08-16T09:43:59.435Z,11.93
2022-08-16T09:46:45.927Z,11.48
2022-08-16T09:49:20.309Z,11.82
2022-08-16T09:51:55.557Z,11.30
2022-08-16T09:54:32.224Z,10.75
2022-08-16T09:57:03.477Z,11.18
2022-08-16T09:59:38.217Z,10.52
2022-08-16T10:02:26.607Z,9.75
2022-08-16T10:04:58.952Z,10.27
2022-08-16T10:07:55.150Z,9.77
2022-08-16T10:10:30.406Z,9.30
2022-08-16T10:13:12.735Z,8.80
2022-08-16T10:15:55.602Z,8.07
2022-08-16T10:19:02.242Z,9.25
2022-08-16T10:21:19.770Z,9.80
2022-08-16T10:23:53.671Z,10.88
2022-08-16T10:27:19.015Z,8.95
2022-08-16T10:29:20.164Z,8.45
2022-08-16T10:31:53.555Z,8.98
2022-08-16T10:34:32.405Z,8.02
2022-08-16T10:37:03.365Z,9.35
2022-08-16T10:39:41.589Z,8.13
2022-08-16T10:42:13.705Z,8.70
2022-08-16T10:44:53.380Z,8.68
2022-08-16T10:47:24.002Z,9.43
2022-08-16T10:49:56.010Z,9.20
2022-08-16T10:52:27.823Z,8.23
2022-08-16T10:57:56.332Z,8.32
2022-08-16T11:00:27.100Z,7.55
2022-08-16T11:03:01.209Z,8.02
2022-08-16T11:08:35.260Z,8.65
2022-08-16T11:11:11.721Z,9.02
2022-08-16T11:13:58.749Z,8.65
2022-08-16T11:19:20.173Z,9.88
2022-08-16T11:24:45.033Z,8.88
2022-08-16T11:27:22.951Z,8.55
2022-08-16T11:29:56.639Z,9.00
2022-08-16T11:32:31.429Z,8.73
2022-08-16T11:35:13.335Z,8.32
2022-08-16T11:40:44.199Z,8.60
2022-08-16T11:43:16.903Z,8.85
2022-08-16T11:45:54.162Z,9.23
2022-08-16T11:48:25.601Z,8.15
2022-08-16T11:50:56.437Z,9.27
2022-08-16T11:53:29.951Z,9.88
2022-08-16T11:56:06.777Z,8.13
2022-08-16T11:58:39.500Z,8.95
2022-08-16T12:01:11.929Z,9.70
2022-08-16T12:03:45.956Z,9.73
2022-08-16T12:06:30.303Z,8.73
2022-08-16T12:09:04.245Z,9.80
2022-08-16T12:11:34.692Z,9.88
2022-08-16T12:14:06.721Z,8.27
2022-08-16T12:16:37.914Z,8.35
2022-08-16T12:19:13.607Z,7.93
2022-08-16T12:21:59.400Z,8.40
2022-08-16T12:24:31.064Z,8.68
2022-08-16T12:27:01.600Z,9.50
2022-08-16T12:29:31.610Z,9.20
2022-08-16T12:32:26.608Z,10.23
2022-08-16T12:34:53.032Z,9.85
2022-08-16T12:37:24.713Z,8.60
2022-08-16T12:39:57.142Z,9.07
2022-08-16T12:42:35.189Z,9.50
2022-08-16T12:45:07.595Z,9.13
2022-08-16T12:48:15.886Z,7.72
2022-08-16T12:50:49.099Z,8.05
2022-08-16T12:53:21.413Z,7.97
2022-08-16T12:55:53.515Z,8.50
2022-08-16T12:58:48.289Z,8.15
2022-08-16T13:01:14.238Z,9.35
2022-08-16T13:03:45.328Z,8.43
2022-08-16T13:06:19.996Z,8.85
2022-08-16T13:09:02.505Z,8.57
2022-08-16T13:11:41.470Z,10.10
2022-08-16T13:14:31.300Z,10.23
2022-08-16T13:20:06.617Z,10.77
2022-08-16T13:22:28.182Z,8.88
2022-08-16T13:24:58.520Z,8.25
2022-08-16T13:28:02.604Z,8.55
2022-08-16T13:30:35.691Z,10.10
2022-08-16T13:33:12.436Z,10.60
2022-08-16T13:35:55.944Z,11.15
2022-08-16T13:41:09.464Z,10.98
2022-08-16T13:43:41.973Z,9.55
2022-08-16T13:46:12.091Z,12.80
2022-08-16T13:48:44.699Z,11.02
2022-08-16T13:51:18.006Z,11.52
2022-08-16T13:53:59.637Z,13.68
2022-08-16T13:56:37.482Z,11.05
2022-08-16T13:59:20.196Z,10.20
2022-08-16T14:01:55.422Z,12.32
2022-08-16T14:04:28.257Z,11.98
2022-08-16T14:06:59.811Z,12.45
2022-08-16T14:09:32.180Z,12.95
2022-08-16T14:12:09.768Z,10.93
2022-08-16T14:14:56.354Z,13.15
2022-08-16T14:17:28.029Z,12.20
2022-08-16T14:19:59.679Z,11.32
2022-08-16T14:22:35.869Z,14.93
2022-08-16T14:25:16.272Z,12.20
2022-08-16T14:27:47.653Z,11.70
2022-08-16T14:30:25.590Z,13.27
2022-08-16T14:32:56.027Z,12.98
2022-08-16T14:35:36.686Z,11.20
2022-08-16T14:38:23.783Z,11.23
2022-08-16T14:40:55.587Z,10.20
2022-08-16T14:43:29.735Z,10.27
2022-08-16T14:46:04.629Z,11.30
2022-08-16T14:48:37.520Z,10.25
2022-08-16T14:51:07.519Z,10.52
2022-08-16T14:53:38.703Z,9.90
2022-08-16T14:56:38.261Z,9.48
2022-08-16T14:59:07.082Z,8.77
2022-08-16T15:01:57.960Z,9.23
2022-08-16T15:04:47.816Z,8.52
2022-08-16T15:07:21.639Z,8.60
2022-08-16T15:10:00.013Z,8.47
2022-08-16T15:12:36.396Z,9.70
2022-08-16T15:15:16.636Z,9.30
2022-08-16T15:17:56.758Z,10.13
2022-08-16T15:20:30.719Z,8.27
2022-08-16T15:23:04.066Z,8.23
2022-08-16T15:25:41.461Z,8.45
2022-08-16T15:28:30.517Z,8.90
2022-08-16T15:31:04.546Z,9.25
2022-08-16T15:33:44.282Z,10.20
2022-08-16T15:36:19.154Z,15.07
2022-08-16T15:39:02.213Z,54.97
2022-08-16T15:41:58.237Z,34.33
2022-08-16T15:44:42.743Z,12.80
2022-08-16T15:47:22.458Z,12.30
2022-08-16T15:49:57.961Z,9.50
2022-08-16T15:52:30.757Z,13.77
2022-08-16T15:57:53.865Z,8.07
2022-08-16T16:00:26.792Z,9.35
2022-08-16T16:03:08.738Z,8.75
2022-08-16T16:05:43.277Z,9.00
2022-08-16T16:08:22.437Z,9.32
2022-08-16T16:10:59.316Z,7.88
2022-08-16T16:13:30.280Z,7.88
2022-08-16T16:16:03.904Z,8.15
2022-08-16T16:18:48.705Z,7.88
2022-08-16T16:21:20.915Z,7.55
2022-08-16T16:23:54.896Z,8.20
2022-08-16T16:26:28.157Z,7.18
2022-08-16T16:29:08.901Z,7.82
2022-08-16T16:31:59.083Z,7.82
2022-08-16T16:34:32.221Z,7.18
2022-08-16T16:37:09.466Z,7.80
2022-08-16T16:39:41.059Z,7.60
2022-08-16T16:42:29.173Z,8.18
2022-08-16T16:45:03.062Z,7.88
2022-08-16T16:47:41.738Z,7.37
2022-08-16T16:50:24.517Z,7.93
2022-08-16T16:52:57.885Z,7.88
2022-08-16T16:55:29.043Z,7.10
2022-08-16T16:58:17.787Z,7.15
2022-08-16T17:00:59.808Z,8.05
2022-08-16T17:03:30.437Z,9.35
2022-08-16T17:06:03.141Z,8.65
2022-08-16T17:08:41.988Z,8.23
2022-08-16T17:11:12.644Z,7.85
2022-08-16T17:13:43.930Z,8.32
2022-08-16T17:19:16.604Z,8.90
2022-08-16T17:21:52.129Z,7.90
2022-08-16T17:24:31.989Z,7.82
2022-08-16T17:27:10.331Z,8.48
2022-08-16T17:29:45.899Z,9.07
2022-08-16T17:32:46.651Z,8.05
2022-08-16T17:35:17.840Z,8.00
2022-08-16T17:37:51.937Z,7.43
2022-08-16T17:39:28.191Z,8.63
2022-08-16T17:43:17.508Z,7.50
2022-08-16T17:45:48.806Z,8.55
2022-08-16T17:48:18.984Z,8.75
2022-08-16T17:50:49.072Z,10.00
2022-08-16T17:53:25.372Z,9.75
2022-08-16T17:55:57.131Z,9.13
2022-08-16T17:58:27.424Z,8.88
2022-08-16T18:00:59.944Z,9.95
2022-08-16T18:03:40.844Z,9.45
2022-08-16T18:06:25.568Z,10.00
2022-08-16T18:09:02.700Z,10.18
2022-08-16T18:11:41.209Z,10.15
2022-08-16T18:14:15.749Z,9.65
2022-08-16T18:16:47.948Z,10.32
2022-08-16T18:19:17.947Z,9.65
2022-08-16T18:22:10.590Z,9.95
2022-08-16T18:24:40.612Z,9.40
2022-08-16T18:27:25.893Z,8.88
2022-08-16T18:29:56.990Z,9.55
2022-08-16T18:32:27.626Z,10.38
2022-08-16T18:34:58.320Z,9.38
2022-08-16T18:37:28.263Z,10.77
2022-08-16T18:39:58.639Z,10.32
2022-08-16T18:42:30.027Z,9.98
2022-08-16T18:44:59.836Z,9.57
2022-08-16T18:47:29.752Z,9.57
2022-08-16T18:50:00.522Z,10.02
2022-08-16T18:52:30.759Z,10.68
2022-08-16T18:55:13.946Z,9.90
2022-08-16T18:57:46.705Z,10.05
2022-08-16T19:00:20.845Z,9.57
2022-08-16T19:02:58.910Z,9.25
2022-08-16T19:05:30.900Z,9.43
2022-08-16T19:08:02.333Z,8.85
2022-08-16T19:10:33.458Z,8.70
2022-08-16T19:13:10.078Z,8.48
2022-08-16T19:15:42.168Z,8.57
2022-08-16T19:18:12.501Z,8.10
2022-08-16T19:20:44.726Z,8.55
2022-08-16T19:23:17.514Z,8.32
2022-08-16T19:25:53.022Z,7.95
2022-08-16T19:28:51.581Z,7.65
2022-08-16T19:31:21.982Z,8.25
2022-08-16T19:33:55.400Z,9.10
2022-08-16T19:39:06.373Z,8.25
2022-08-16T19:41:38.157Z,9.30
2022-08-16T19:44:10.202Z,9.48
2022-08-16T19:46:44.910Z,8.90
2022-08-16T19:49:16.476Z,8.75
2022-08-16T19:51:47.315Z,8.88
2022-08-16T19:54:17.647Z,9.32
2022-08-16T19:56:47.960Z,8.68
2022-08-16T19:59:40.565Z,7.72
2022-08-16T20:02:35.903Z,8.20
2022-08-16T20:05:07.057Z,8.55
2022-08-16T20:07:37.078Z,8.30
2022-08-16T20:10:08.222Z,8.35
2022-08-16T20:12:38.807Z,8.25
2022-08-16T20:15:15.847Z,7.57
2022-08-16T20:17:46.381Z,8.10
2022-08-16T20:20:20.242Z,7.85
2022-08-16T20:22:53.870Z,7.40
2022-08-16T20:25:28.465Z,7.95
2022-08-16T20:27:59.611Z,7.80
2022-08-16T20:30:31.065Z,8.00
2022-08-16T20:33:00.998Z,7.15
2022-08-16T20:35:31.636Z,8.05
2022-08-16T20:38:04.019Z,7.55
2022-08-16T20:40:35.697Z,7.80
2022-08-16T20:43:08.411Z,8.18
2022-08-16T20:45:44.057Z,7.90
2022-08-16T20:48:14.806Z,8.02
2022-08-16T20:50:45.305Z,7.57
2022-08-16T20:53:15.489Z,8.13
2022-08-16T20:55:45.916Z,7.78
2022-08-16T20:58:16.142Z,7.88
2022-08-16T21:00:47.578Z,8.70
2022-08-16T21:03:17.525Z,8.38
2022-08-16T21:05:47.722Z,8.18
2022-08-16T21:08:51.590Z,8.25
2022-08-16T21:11:08.704Z,7.68
2022-08-16T21:13:42.671Z,8.25
2022-08-16T21:16:16.515Z,8.38
2022-08-16T21:18:46.791Z,7.68
2022-08-16T21:21:16.767Z,8.98
2022-08-16T21:23:46.675Z,8.73
2022-08-16T21:26:16.676Z,8.82
2022-08-16T21:28:46.823Z,7.75
2022-08-16T21:31:19.025Z,8.82
2022-08-16T21:33:55.082Z,8.40
2022-08-16T21:36:35.549Z,9.32
2022-08-16T21:39:07.448Z,9.27
2022-08-16T21:41:38.504Z,9.15
2022-08-16T21:44:09.069Z,8.98
2022-08-16T21:46:40.512Z,8.40
2022-08-16T21:49:10.398Z,8.68
2022-08-16T21:51:40.381Z,9.07
2022-08-16T21:54:10.543Z,9.75
2022-08-16T21:56:40.614Z,8.23
2022-08-16T21:59:13.447Z,9.48
2022-08-16T22:01:45.702Z,9.05
2022-08-16T22:04:38.161Z,8.45
2022-08-16T22:07:06.500Z,9.23
2022-08-16T22:09:37.122Z,8.88
2022-08-16T22:12:08.031Z,9.65
2022-08-16T22:14:38.899Z,9.10
2022-08-16T22:17:10.136Z,9.02
2022-08-16T22:19:40.018Z,9.18
2022-08-16T22:22:10.921Z,8.65
2022-08-16T22:24:41.246Z,9.20
2022-08-16T22:27:11.521Z,9.18
2022-08-16T22:29:42.299Z,9.25
2022-08-16T22:32:13.794Z,8.82
2022-08-16T22:34:43.687Z,8.25
2022-08-16T22:37:13.633Z,8.50
2022-08-16T22:39:43.875Z,9.57
2022-08-16T22:42:14.268Z,9.25
2022-08-16T22:44:46.241Z,8.18
2022-08-16T22:47:18.289Z,8.73
2022-08-16T22:49:48.218Z,8.93
2022-08-16T22:52:56.067Z,9.80
2022-08-16T22:55:08.737Z,8.52
2022-08-16T22:57:38.666Z,8.60
2022-08-16T23:00:11.929Z,8.73
2022-08-16T23:03:02.906Z,8.90
2022-08-16T23:05:35.440Z,7.72
2022-08-16T23:08:07.494Z,9.52
2022-08-16T23:10:38.060Z,9.80
2022-08-16T23:13:09.349Z,8.82
2022-08-16T23:15:41.963Z,8.57
2022-08-16T23:18:13.783Z,9.05
2022-08-16T23:20:44.182Z,8.63
2022-08-16T23:23:19.915Z,8.18
2022-08-16T23:25:55.072Z,8.25
2022-08-16T23:30:58.707Z,8.40
2022-08-16T23:33:30.174Z,8.48
2022-08-16T23:36:01.761Z,9.18
2022-08-16T23:38:39.000Z,8.65
2022-08-16T23:41:11.609Z,8.65
2022-08-16T23:43:44.381Z,8.93
2022-08-16T23:46:17.062Z,8.98
2022-08-16T23:49:58.908Z,9.27
2022-08-16T23:51:38.696Z,8.93
2022-08-16T23:54:11.563Z,9.10
2022-08-16T23:56:41.803Z,8.43
2022-08-16T23:59:11.773Z,9.18
